Time;durP1;ratioP1;P1;durP2;ratioP2;P2;SDS_P1;SDS_P2;PMS_P1;PMS_P2;Temp;Humidity;BMP_temperature;BMP_pressure;BME280_temperature;BME280_humidity;BME280_pressure;Samples;Min_cycle;Max_cycle;Signal;HPM_P1;HPM_P2
2023/03/27 00:00:27;;;;;;;10.10;6.00;;;2.80;99.90;;;;;;5094888;28;20689;-66
2023/03/27 00:02:53;;;;;;;12.33;6.97;;;2.80;99.90;;;;;;5095113;28;20165;-66
2023/03/27 00:05:19;;;;;;;12.07;6.63;;;2.70;99.90;;;;;;5094112;28;20232;-66
2023/03/27 00:07:54;;;;;;;12.70;6.30;;;2.70;99.90;;;;;;5095010;28;20550;-66
2023/03/27 00:10:22;;;;;;;14.33;6.57;;;2.70;99.90;;;;;;5095402;28;20164;-66
2023/03/27 00:12:48;;;;;;;12.63;6.27;;;2.60;99.90;;;;;;5094866;28;20242;-66
2023/03/27 00:15:17;;;;;;;15.30;6.57;;;2.60;99.90;;;;;;5093376;28;20181;-66
2023/03/27 00:17:47;;;;;;;13.20;6.73;;;2.50;99.90;;;;;;5094510;28;20634;-66
2023/03/27 00:20:21;;;;;;;15.80;6.40;;;2.50;99.90;;;;;;5094677;28;20562;-66
2023/03/27 00:22:54;;;;;;;15.63;6.37;;;2.50;99.90;;;;;;5093287;28;20188;-67
2023/03/27 00:25:22;;;;;;;18.07;7.17;;;2.40;99.90;;;;;;5093209;28;20161;-66
2023/03/27 00:27:48;;;;;;;14.63;7.07;;;2.40;99.90;;;;;;5094201;28;20190;-66
2023/03/27 00:30:14;;;;;;;21.17;7.50;;;2.40;99.90;;;;;;5094265;28;20543;-70
2023/03/27 00:32:40;;;;;;;14.57;7.43;;;2.30;99.90;;;;;;5094294;28;20169;-68
2023/03/27 00:35:08;;;;;;;18.97;7.70;;;2.40;99.90;;;;;;5092998;28;20177;-68
2023/03/27 00:37:37;;;;;;;13.87;7.00;;;2.40;99.90;;;;;;5094341;28;20165;-68
2023/03/27 00:40:12;;;;;;;20.77;7.73;;;2.40;99.90;;;;;;5092860;28;20220;-68
2023/03/27 00:42:38;;;;;;;18.87;7.17;;;2.40;99.90;;;;;;5094155;28;20571;-68
2023/03/27 00:45:05;;;;;;;15.27;7.47;;;2.40;99.90;;;;;;5093912;28;20248;-68
2023/03/27 00:47:37;;;;;;;13.63;7.20;;;2.40;99.90;;;;;;5092714;28;20228;-68
2023/03/27 00:50:11;;;;;;;10.23;6.07;;;2.30;99.90;;;;;;5095140;28;20494;-68
2023/03/27 00:52:41;;;;;;;16.07;6.67;;;2.30;99.90;;;;;;5094041;28;20180;-68
2023/03/27 00:55:13;;;;;;;14.07;5.97;;;2.30;99.90;;;;;;5094414;28;20164;-68
2023/03/27 00:57:41;;;;;;;10.73;6.07;;;2.20;99.90;;;;;;5093668;28;20284;-68
2023/03/27 01:00:12;;;;;;;13.77;7.10;;;2.20;99.90;;;;;;5093862;28;20180;-68
2023/03/27 01:02:43;;;;;;;15.30;7.10;;;2.20;99.90;;;;;;5094231;28;20222;-68
2023/03/27 01:05:10;;;;;;;12.47;6.20;;;2.20;99.90;;;;;;5092566;28;20179;-68
2023/03/27 01:07:38;;;;;;;10.30;5.60;;;2.20;99.90;;;;;;5094119;28;20195;-68
2023/03/27 01:10:05;;;;;;;10.40;6.53;;;2.20;99.90;;;;;;5093816;28;20169;-68
2023/03/27 01:12:49;;;;;;;10.57;6.47;;;2.20;99.90;;;;;;5093726;28;20204;-68
2023/03/27 01:15:35;;;;;;;12.90;7.10;;;2.20;99.90;;;;;;5094052;28;20169;-68
2023/03/27 01:18:04;;;;;;;22.57;6.73;;;2.20;99.90;;;;;;5093713;28;20204;-68
2023/03/27 01:21:09;;;;;;;12.60;7.23;;;2.20;99.90;;;;;;5093439;28;20572;-69
2023/03/27 01:24:26;;;;;;;12.73;6.80;;;2.20;99.90;;;;;;5091063;28;20199;-68
2023/03/27 01:27:15;;;;;;;17.97;7.23;;;2.10;99.90;;;;;;5069592;28;20239;-69
2023/03/27 01:30:12;;;;;;;21.70;7.27;;;2.10;99.90;;;;;;5092455;28;20578;-68
2023/03/27 01:33:12;;;;;;;12.60;6.43;;;2.10;99.90;;;;;;5092127;28;20268;-68
2023/03/27 01:35:44;;;;;;;14.73;6.60;;;2.10;99.90;;;;;;5092141;28;20392;-68
2023/03/27 01:38:15;;;;;;;14.17;6.57;;;2.10;99.90;;;;;;5093269;28;20197;-68
2023/03/27 01:40:53;;;;;;;12.30;6.43;;;2.00;99.90;;;;;;5094835;28;20341;-68
2023/03/27 01:43:30;;;;;;;9.93;6.97;;;2.00;99.90;;;;;;5097554;28;20295;-68
2023/03/27 01:46:11;;;;;;;14.73;7.50;;;1.90;99.90;;;;;;5097669;28;20164;-68
2023/03/27 01:49:01;;;;;;;15.13;7.43;;;1.90;99.90;;;;;;5096281;28;20205;-68
2023/03/27 01:51:33;;;;;;;13.37;7.00;;;1.90;99.90;;;;;;5096205;28;20181;-68
2023/03/27 01:54:23;;;;;;;11.83;6.63;;;1.90;99.90;;;;;;5096180;28;20193;-68
2023/03/27 01:57:19;;;;;;;11.87;6.60;;;1.90;99.90;;;;;;5097930;28;20176;-68
2023/03/27 01:59:53;;;;;;;19.83;7.90;;;1.90;99.90;;;;;;5097404;28;20204;-68
2023/03/27 02:02:25;;;;;;;13.17;6.60;;;1.90;99.90;;;;;;5096105;28;20257;-68
2023/03/27 02:05:00;;;;;;;11.67;7.10;;;1.90;99.90;;;;;;5095861;28;20166;-68
2023/03/27 02:07:37;;;;;;;12.63;7.07;;;1.80;99.90;;;;;;5097432;28;20157;-68
2023/03/27 02:10:16;;;;;;;16.60;7.50;;;1.80;99.90;;;;;;5095807;28;20192;-67
2023/03/27 02:12:49;;;;;;;18.37;7.23;;;1.80;99.90;;;;;;5095901;28;20169;-68
2023/03/27 02:15:19;;;;;;;13.03;6.30;;;1.80;99.90;;;;;;5095617;28;20550;-68
2023/03/27 02:17:48;;;;;;;14.70;7.37;;;1.80;99.90;;;;;;5095911;28;20212;-68
2023/03/27 02:20:15;;;;;;;14.33;6.90;;;1.70;99.90;;;;;;5096771;28;20181;-68
2023/03/27 02:22:47;;;;;;;14.63;7.27;;;1.70;99.90;;;;;;5097096;28;20272;-68
2023/03/27 02:25:24;;;;;;;11.83;6.50;;;1.70;99.90;;;;;;5097061;28;20193;-68
2023/03/27 02:28:15;;;;;;;10.80;6.90;;;1.70;99.90;;;;;;5095503;28;20251;-69
2023/03/27 02:30:57;;;;;;;17.27;8.30;;;1.70;99.90;;;;;;5097342;28;20189;-68
2023/03/27 02:33:56;;;;;;;15.20;7.83;;;1.70;99.90;;;;;;5097096;28;20537;-68
2023/03/27 02:36:42;;;;;;;9.57;6.90;;;1.70;99.90;;;;;;5095509;28;20185;-68
2023/03/27 02:39:21;;;;;;;14.50;6.80;;;1.70;99.90;;;;;;5096652;28;20193;-68
2023/03/27 02:41:56;;;;;;;12.53;7.60;;;1.60;99.90;;;;;;5096932;28;20228;-68
2023/03/27 02:44:42;;;;;;;19.13;7.70;;;1.60;99.90;;;;;;5095158;28;20188;-66
2023/03/27 02:47:17;;;;;;;10.97;7.17;;;1.60;99.90;;;;;;5095102;28;20205;-66
2023/03/27 02:49:51;;;;;;;25.83;8.17;;;1.60;99.90;;;;;;5096291;28;20193;-66
2023/03/27 02:52:22;;;;;;;19.57;7.57;;;1.60;99.90;;;;;;5094965;28;20281;-66
2023/03/27 02:55:04;;;;;;;20.53;6.87;;;1.50;99.90;;;;;;5096235;28;20244;-66
2023/03/27 02:57:32;;;;;;;11.20;6.77;;;1.60;99.90;;;;;;5096137;28;20185;-67
2023/03/27 03:00:21;;;;;;;11.07;6.47;;;1.50;99.90;;;;;;5094838;28;20166;-66
2023/03/27 03:02:48;;;;;;;14.03;7.03;;;1.40;99.90;;;;;;5095827;28;20177;-66
2023/03/27 03:05:19;;;;;;;10.63;6.83;;;1.40;99.90;;;;;;5096221;28;20176;-66
2023/03/27 03:07:46;;;;;;;18.90;7.27;;;1.30;99.90;;;;;;5096307;28;20200;-66
2023/03/27 03:10:12;;;;;;;11.87;6.70;;;1.30;99.90;;;;;;5094564;28;20177;-66
2023/03/27 03:12:38;;;;;;;11.27;7.13;;;1.30;99.90;;;;;;5094685;28;20189;-66
2023/03/27 03:15:06;;;;;;;21.47;7.13;;;1.20;99.90;;;;;;5094355;28;20184;-66
2023/03/27 03:17:33;;;;;;;14.90;6.90;;;1.20;99.90;;;;;;5094354;28;20260;-68
2023/03/27 03:19:59;;;;;;;18.20;7.13;;;1.20;99.90;;;;;;5095900;28;20660;-68
2023/03/27 03:22:25;;;;;;;9.70;7.27;;;1.20;99.90;;;;;;5095598;28;20232;-68
2023/03/27 03:24:50;;;;;;;12.00;6.90;;;1.10;99.90;;;;;;5095966;28;20230;-67
2023/03/27 03:27:19;;;;;;;19.10;7.07;;;1.10;99.90;;;;;;5096031;28;20648;-68
2023/03/27 03:29:47;;;;;;;17.93;7.57;;;1.00;99.90;;;;;;5095663;28;20192;-68
2023/03/27 03:32:13;;;;;;;10.83;7.17;;;1.00;99.90;;;;;;5094411;28;20649;-67
2023/03/27 03:34:40;;;;;;;14.00;7.43;;;1.00;99.90;;;;;;5094109;28;20180;-68
2023/03/27 03:37:09;;;;;;;13.17;8.17;;;0.90;99.90;;;;;;5095494;28;20174;-67
2023/03/27 03:39:35;;;;;;;9.93;6.60;;;0.90;99.90;;;;;;5095343;28;20692;-67
2023/03/27 03:42:01;;;;;;;11.67;6.63;;;0.90;99.90;;;;;;5095931;28;20189;-68
2023/03/27 03:44:27;;;;;;;14.47;8.67;;;0.90;99.90;;;;;;5095255;28;20660;-68
2023/03/27 03:46:53;;;;;;;10.73;6.90;;;0.90;99.90;;;;;;5095290;28;20173;-68
2023/03/27 03:49:19;;;;;;;14.43;7.60;;;0.90;99.90;;;;;;5095279;28;20245;-68
2023/03/27 03:51:45;;;;;;;18.33;7.57;;;0.90;99.90;;;;;;5093860;28;20177;-68
2023/03/27 03:54:11;;;;;;;15.57;7.67;;;0.90;99.90;;;;;;5073712;28;20177;-68
2023/03/27 03:56:40;;;;;;;10.90;7.10;;;0.80;99.90;;;;;;5074866;28;20178;-68
2023/03/27 03:59:10;;;;;;;13.23;7.60;;;0.80;99.90;;;;;;5074438;28;20210;-68
2023/03/27 04:01:36;;;;;;;9.07;6.70;;;0.80;99.90;;;;;;5073526;28;20224;-68
2023/03/27 04:04:03;;;;;;;12.10;8.23;;;0.80;99.90;;;;;;5072949;28;20259;-68
2023/03/27 04:06:31;;;;;;;10.73;8.50;;;0.80;99.90;;;;;;5073287;28;20178;-68
2023/03/27 04:08:57;;;;;;;14.50;8.73;;;0.80;99.90;;;;;;5074405;28;20210;-68
2023/03/27 04:11:23;;;;;;;12.70;7.40;;;0.90;99.90;;;;;;5075537;28;20181;-68
2023/03/27 04:13:49;;;;;;;17.53;7.17;;;0.90;99.90;;;;;;5073400;28;20269;-68
2023/03/27 04:16:15;;;;;;;12.80;7.27;;;0.90;99.90;;;;;;5075305;28;20227;-68
2023/03/27 04:18:41;;;;;;;10.50;7.47;;;0.90;99.90;;;;;;5073326;28;20297;-68
2023/03/27 04:21:13;;;;;;;14.57;7.73;;;1.00;99.90;;;;;;5073905;28;20296;-68
2023/03/27 04:23:40;;;;;;;10.50;7.00;;;1.00;99.90;;;;;;5093395;28;20204;-69
2023/03/27 04:26:06;;;;;;;16.60;7.37;;;1.00;99.90;;;;;;5096689;28;20534;-68
2023/03/27 04:28:33;;;;;;;10.23;7.87;;;1.00;99.90;;;;;;5095768;28;20193;-68
2023/03/27 04:31:05;;;;;;;11.67;7.90;;;1.00;99.90;;;;;;5094173;28;20581;-68
2023/03/27 04:33:31;;;;;;;9.80;7.63;;;1.10;99.90;;;;;;5093724;28;20173;-68
2023/03/27 04:35:59;;;;;;;12.97;7.47;;;1.10;99.90;;;;;;5095153;28;20173;-68
2023/03/27 04:38:26;;;;;;;14.97;7.90;;;1.10;99.90;;;;;;5093519;28;20665;-68
2023/03/27 04:40:52;;;;;;;11.57;7.90;;;1.10;99.90;;;;;;5093204;28;20208;-68
2023/03/27 04:43:19;;;;;;;12.20;7.07;;;1.10;99.90;;;;;;5094981;28;20633;-68
2023/03/27 04:45:47;;;;;;;17.00;8.60;;;1.10;99.90;;;;;;5093587;28;20218;-68
2023/03/27 04:48:14;;;;;;;10.97;7.27;;;1.10;99.90;;;;;;5098961;28;20670;-68
2023/03/27 04:50:42;;;;;;;11.43;7.57;;;1.10;99.90;;;;;;5096707;28;20173;-68
2023/03/27 04:53:09;;;;;;;9.53;7.57;;;1.10;99.90;;;;;;5094672;28;20180;-68
2023/03/27 04:55:36;;;;;;;19.00;8.60;;;1.10;99.90;;;;;;5093315;28;20182;-68
2023/03/27 04:58:06;;;;;;;17.13;8.00;;;1.00;99.90;;;;;;5093952;28;20211;-68
2023/03/27 05:00:32;;;;;;;13.23;7.83;;;1.00;99.90;;;;;;5094071;28;20173;-68
2023/03/27 05:02:59;;;;;;;13.03;8.17;;;1.00;99.90;;;;;;5092994;28;20234;-68
2023/03/27 05:05:26;;;;;;;15.67;9.07;;;1.00;99.90;;;;;;5094030;28;20166;-68
2023/03/27 05:07:52;;;;;;;10.90;7.90;;;1.00;99.90;;;;;;5094037;28;20180;-68
2023/03/27 05:10:18;;;;;;;19.57;9.07;;;0.90;99.90;;;;;;5092800;28;20203;-67
2023/03/27 05:12:45;;;;;;;17.87;7.63;;;0.90;99.90;;;;;;5093931;28;20514;-68
2023/03/27 05:15:11;;;;;;;12.23;7.47;;;0.90;99.90;;;;;;5091699;28;20242;-68
2023/03/27 05:17:42;;;;;;;16.03;7.57;;;0.90;99.90;;;;;;5093841;28;20215;-68
2023/03/27 05:20:15;;;;;;;11.83;8.17;;;0.90;99.90;;;;;;5092512;28;20170;-68
2023/03/27 05:22:42;;;;;;;15.03;7.90;;;0.90;99.90;;;;;;5094162;28;20657;-68
2023/03/27 05:25:09;;;;;;;12.60;7.60;;;0.90;99.90;;;;;;5093856;28;20660;-68
2023/03/27 05:27:35;;;;;;;10.93;8.37;;;0.90;99.90;;;;;;5092570;28;20169;-68
2023/03/27 05:30:01;;;;;;;17.97;9.73;;;0.90;99.90;;;;;;5093790;28;20199;-68
2023/03/27 05:32:27;;;;;;;12.03;7.93;;;0.90;99.90;;;;;;5094018;28;20558;-68
2023/03/27 05:34:55;;;;;;;12.70;7.67;;;0.90;99.90;;;;;;5094361;28;20188;-68
2023/03/27 05:37:22;;;;;;;17.07;8.60;;;0.80;99.90;;;;;;5092496;28;20556;-67
2023/03/27 05:39:48;;;;;;;10.97;8.20;;;0.80;99.90;;;;;;5092336;28;20275;-67
2023/03/27 05:42:15;;;;;;;15.60;8.40;;;0.80;99.90;;;;;;5094096;28;20274;-67
2023/03/27 05:44:44;;;;;;;19.07;8.53;;;0.90;99.90;;;;;;5093639;28;20165;-68
2023/03/27 05:47:11;;;;;;;11.47;8.63;;;0.90;99.90;;;;;;5092225;28;20227;-67
2023/03/27 05:49:38;;;;;;;17.43;8.73;;;0.90;99.90;;;;;;5093672;28;20190;-68
2023/03/27 05:52:04;;;;;;;10.23;8.07;;;1.00;99.90;;;;;;5092469;28;20180;-68
2023/03/27 05:54:30;;;;;;;16.57;8.33;;;1.00;99.90;;;;;;5092685;28;20546;-67
2023/03/27 05:56:56;;;;;;;16.43;9.47;;;1.10;99.90;;;;;;5093855;28;20241;-67
2023/03/27 05:59:22;;;;;;;11.30;8.67;;;1.20;99.90;;;;;;5091871;28;20209;-67
2023/03/27 06:01:48;;;;;;;12.57;8.37;;;1.20;99.90;;;;;;5092182;28;20211;-67
2023/03/27 06:04:16;;;;;;;17.57;8.87;;;1.30;99.90;;;;;;5093456;28;20165;-67
2023/03/27 06:06:45;;;;;;;10.37;8.47;;;1.50;99.90;;;;;;5093632;28;20204;-67
2023/03/27 06:09:11;;;;;;;13.07;8.27;;;1.60;99.90;;;;;;5093789;28;20257;-67
2023/03/27 06:11:38;;;;;;;13.03;7.60;;;1.60;99.90;;;;;;5093468;28;20610;-69
2023/03/27 06:14:04;;;;;;;12.20;8.03;;;1.70;99.90;;;;;;5092312;28;20268;-68
2023/03/27 06:16:30;;;;;;;11.13;8.37;;;1.70;99.90;;;;;;5093849;28;20197;-68
2023/03/27 06:18:56;;;;;;;14.03;8.83;;;1.80;99.90;;;;;;5092645;28;20201;-67
2023/03/27 06:21:22;;;;;;;12.03;8.27;;;1.80;99.90;;;;;;5091998;28;20205;-68
2023/03/27 06:23:47;;;;;;;8.77;7.20;;;1.80;99.90;;;;;;5093490;28;20177;-68
2023/03/27 06:26:14;;;;;;;12.33;7.80;;;1.90;99.90;;;;;;5094640;28;20163;-67
2023/03/27 06:28:40;;;;;;;14.77;7.97;;;2.00;99.90;;;;;;5096893;28;20666;-66
2023/03/27 06:31:07;;;;;;;11.53;8.10;;;2.10;99.90;;;;;;5095645;28;20182;-66
2023/03/27 06:33:33;;;;;;;10.77;8.00;;;2.10;99.90;;;;;;5096648;28;20637;-66
2023/03/27 06:36:00;;;;;;;12.30;7.37;;;2.10;99.90;;;;;;5095447;28;20646;-66
2023/03/27 06:38:30;;;;;;;11.77;7.77;;;2.10;99.90;;;;;;5096653;28;20224;-66
2023/03/27 06:40:56;;;;;;;17.97;8.87;;;2.20;99.90;;;;;;5096778;28;20200;-66
2023/03/27 06:43:23;;;;;;;18.27;9.20;;;2.20;99.90;;;;;;5096466;28;20231;-66
2023/03/27 06:45:50;;;;;;;10.90;8.17;;;2.20;99.90;;;;;;5096835;28;20169;-66
2023/03/27 06:48:17;;;;;;;9.73;7.83;;;2.20;99.90;;;;;;5095365;28;20197;-67
2023/03/27 06:50:45;;;;;;;19.23;9.23;;;2.20;99.90;;;;;;5095474;28;20177;-67
2023/03/27 06:53:15;;;;;;;16.10;8.70;;;2.20;99.90;;;;;;5096951;28;20242;-67
2023/03/27 06:55:42;;;;;;;10.90;7.27;;;2.20;99.90;;;;;;5096415;28;20661;-67
2023/03/27 06:58:12;;;;;;;16.63;7.93;;;2.10;99.90;;;;;;5094774;28;20212;-67
2023/03/27 07:00:39;;;;;;;11.13;7.57;;;2.20;99.90;;;;;;5096295;28;20169;-67
2023/03/27 07:03:08;;;;;;;8.37;7.40;;;2.10;99.90;;;;;;5096702;28;20177;-67
2023/03/27 07:05:36;;;;;;;7.77;7.03;;;2.20;99.90;;;;;;5095074;28;20181;-67
2023/03/27 07:08:11;;;;;;;8.23;7.37;;;2.20;99.90;;;;;;5096313;28;20234;-67
2023/03/27 07:10:38;;;;;;;13.87;8.07;;;2.30;99.90;;;;;;5096640;28;20153;-67
2023/03/27 07:13:04;;;;;;;11.23;7.43;;;2.30;99.90;;;;;;5096335;28;20174;-67
2023/03/27 07:15:31;;;;;;;13.77;7.93;;;2.30;99.90;;;;;;5096881;28;20207;-67
2023/03/27 07:17:59;;;;;;;10.53;7.30;;;2.40;99.90;;;;;;5095390;28;20284;-67
2023/03/27 07:20:27;;;;;;;9.43;7.10;;;2.40;99.90;;;;;;5094973;28;20173;-67
2023/03/27 07:22:55;;;;;;;13.20;7.33;;;2.40;99.90;;;;;;5096479;28;20208;-67
2023/03/27 07:25:21;;;;;;;10.00;6.50;;;2.50;99.90;;;;;;5095098;28;20182;-67
2023/03/27 07:27:46;;;;;;;9.80;8.17;;;2.60;99.90;;;;;;5095540;28;20184;-67
2023/03/27 07:30:13;;;;;;;9.27;6.73;;;2.70;99.90;;;;;;5095867;28;20181;-67
2023/03/27 07:32:41;;;;;;;8.27;7.03;;;2.80;99.90;;;;;;5095748;28;20242;-67
2023/03/27 07:35:08;;;;;;;7.47;6.63;;;2.90;99.90;;;;;;5094612;28;20181;-65
2023/03/27 07:37:37;;;;;;;14.47;8.47;;;3.00;99.90;;;;;;5095313;28;20166;-65
2023/03/27 07:40:07;;;;;;;12.30;7.10;;;3.10;99.90;;;;;;5095233;28;20645;-65
2023/03/27 07:42:34;;;;;;;10.47;7.10;;;3.10;99.90;;;;;;5095200;28;20205;-65
2023/03/27 07:45:01;;;;;;;7.27;6.50;;;3.10;99.90;;;;;;5095386;28;20181;-65
2023/03/27 07:47:27;;;;;;;11.70;6.77;;;3.10;99.90;;;;;;5095699;28;20172;-65
2023/03/27 07:49:53;;;;;;;12.23;6.93;;;3.20;99.90;;;;;;5094424;28;20197;-65
2023/03/27 07:52:19;;;;;;;11.47;7.07;;;3.40;99.90;;;;;;5095567;28;20189;-65
2023/03/27 07:54:46;;;;;;;11.23;6.50;;;3.60;99.90;;;;;;5096114;28;20697;-65
2023/03/27 07:57:14;;;;;;;12.57;6.80;;;3.70;99.90;;;;;;5095552;28;20264;-66
2023/03/27 07:59:40;;;;;;;9.20;6.60;;;3.90;99.90;;;;;;5093759;28;20201;-65
2023/03/27 08:02:06;;;;;;;11.67;6.67;;;4.00;99.90;;;;;;5095487;28;20208;-65
2023/03/27 08:04:32;;;;;;;15.43;7.50;;;4.10;99.90;;;;;;5095223;28;20177;-65
2023/03/27 08:06:59;;;;;;;12.67;6.97;;;4.20;99.90;;;;;;5095117;28;20222;-65
2023/03/27 08:09:25;;;;;;;12.00;6.30;;;4.30;99.90;;;;;;5095112;28;20272;-64
2023/03/27 08:11:51;;;;;;;10.03;6.47;;;4.20;99.90;;;;;;5093676;28;20212;-65
2023/03/27 08:14:17;;;;;;;9.17;6.13;;;4.20;99.90;;;;;;5093357;28;20248;-65
2023/03/27 08:16:43;;;;;;;10.00;6.13;;;4.30;99.90;;;;;;5094986;28;20180;-64
2023/03/27 08:19:10;;;;;;;14.57;6.53;;;4.20;99.90;;;;;;5094856;28;20572;-64
2023/03/27 08:21:36;;;;;;;11.73;6.83;;;4.20;99.90;;;;;;5094803;28;20209;-64
2023/03/27 08:24:03;;;;;;;10.03;6.60;;;4.20;99.90;;;;;;5093397;28;20554;-64
2023/03/27 08:26:31;;;;;;;13.97;6.60;;;4.40;99.90;;;;;;5093298;28;20200;-64
2023/03/27 08:28:57;;;;;;;13.23;6.80;;;4.60;99.90;;;;;;5093054;28;20201;-64
2023/03/27 08:31:24;;;;;;;11.87;6.53;;;4.70;99.90;;;;;;5093224;28;20182;-64
2023/03/27 08:33:50;;;;;;;15.17;6.13;;;4.80;99.90;;;;;;5093152;28;20189;-65
2023/03/27 08:36:18;;;;;;;11.17;6.33;;;4.90;99.90;;;;;;5094668;28;20184;-65
2023/03/27 08:38:44;;;;;;;7.50;6.17;;;5.10;99.90;;;;;;5094250;28;20597;-65
2023/03/27 08:41:37;;;;;;;10.17;6.33;;;4.90;99.90;;;;;;5094298;28;20272;-65
2023/03/27 08:44:08;;;;;;;10.97;6.97;;;4.90;99.90;;;;;;5094119;28;20630;-65
2023/03/27 08:46:46;;;;;;;9.70;6.27;;;4.90;99.90;;;;;;5094208;28;20176;-64
2023/03/27 08:49:20;;;;;;;10.57;6.23;;;5.00;99.90;;;;;;5094592;28;20556;-64
2023/03/27 08:51:58;;;;;;;12.00;6.00;;;5.00;99.90;;;;;;5094402;28;20525;-65
2023/03/27 08:54:29;;;;;;;10.07;6.27;;;5.00;99.90;;;;;;5094393;28;20240;-64
2023/03/27 08:56:56;;;;;;;9.50;6.60;;;5.10;99.90;;;;;;5092733;28;20177;-64
2023/03/27 08:59:25;;;;;;;8.50;6.30;;;5.40;99.90;;;;;;5093825;28;20669;-64
2023/03/27 09:01:56;;;;;;;16.17;6.23;;;5.40;99.90;;;;;;5093915;28;20665;-64
2023/03/27 09:04:31;;;;;;;6.97;5.87;;;5.40;99.90;;;;;;5092775;28;20260;-65
2023/03/27 09:07:18;;;;;;;10.10;6.27;;;5.30;99.90;;;;;;5093910;28;20218;-64
2023/03/27 09:10:09;;;;;;;7.83;5.97;;;5.20;99.90;;;;;;5093976;28;20189;-64
2023/03/27 09:12:53;;;;;;;10.57;6.20;;;5.30;99.90;;;;;;5093921;28;20149;-64
2023/03/27 09:15:24;;;;;;;8.23;6.23;;;5.20;99.90;;;;;;5094075;28;20206;-64
2023/03/27 09:18:03;;;;;;;10.43;6.23;;;5.40;99.90;;;;;;5093917;28;20185;-64
2023/03/27 09:20:55;;;;;;;10.80;5.87;;;5.60;99.90;;;;;;5093674;28;20257;-64
2023/03/27 09:23:32;;;;;;;5.57;4.70;;;5.70;99.90;;;;;;5093754;28;20173;-64
2023/03/27 09:26:10;;;;;;;6.67;5.10;;;5.80;99.90;;;;;;5092353;28;20552;-64
2023/03/27 09:28:50;;;;;;;5.47;5.07;;;6.10;99.90;;;;;;5093602;28;20192;-64
2023/03/27 09:31:21;;;;;;;5.77;5.27;;;6.10;99.90;;;;;;5092290;28;20637;-65
2023/03/27 09:33:47;;;;;;;7.37;5.70;;;6.20;99.90;;;;;;5093558;28;20153;-64
2023/03/27 09:36:13;;;;;;;8.83;5.30;;;6.10;99.90;;;;;;5093558;28;20172;-64
2023/03/27 09:38:43;;;;;;;8.67;5.50;;;5.80;99.90;;;;;;5092218;28;20745;-64
2023/03/27 09:41:21;;;;;;;15.00;5.67;;;5.80;99.90;;;;;;5092185;28;20212;-67
2023/03/27 09:44:09;;;;;;;8.00;5.40;;;6.10;99.90;;;;;;5093535;28;20156;-67
2023/03/27 09:46:40;;;;;;;5.80;5.20;;;6.30;99.90;;;;;;5092731;28;20537;-65
2023/03/27 09:49:16;;;;;;;8.33;5.57;;;6.20;99.90;;;;;;5093618;28;20603;-66
2023/03/27 09:51:52;;;;;;;6.27;5.67;;;6.00;99.90;;;;;;5093708;28;20180;-66
2023/03/27 09:54:21;;;;;;;7.03;5.80;;;5.80;99.90;;;;;;5073153;28;20692;-64
2023/03/27 09:56:55;;;;;;;8.57;5.90;;;5.60;99.90;;;;;;5073521;28;20174;-64
2023/03/27 09:59:28;;;;;;;5.80;5.30;;;5.60;99.90;;;;;;5073106;28;20293;-65
2023/03/27 10:02:19;;;;;;;8.23;5.17;;;5.80;99.90;;;;;;5074348;28;20209;-65
2023/03/27 10:05:14;;;;;;;7.13;5.27;;;5.90;99.90;;;;;;5078378;28;20150;-64
2023/03/27 10:07:41;;;;;;;9.47;5.30;;;6.00;99.90;;;;;;5077383;28;20161;-65
2023/03/27 10:10:16;;;;;;;11.73;6.10;;;6.00;99.90;;;;;;5075786;28;20170;-64
2023/03/27 10:12:45;;;;;;;7.53;5.13;;;6.10;99.90;;;;;;5075797;28;20174;-65
2023/03/27 10:15:34;;;;;;;6.53;4.97;;;6.20;99.90;;;;;;5076950;28;20173;-64
2023/03/27 10:18:03;;;;;;;7.43;5.53;;;6.30;99.90;;;;;;5075509;28;20197;-65
2023/03/27 10:20:30;;;;;;;6.63;5.27;;;6.30;99.90;;;;;;5075487;28;20366;-65
2023/03/27 10:23:01;;;;;;;7.87;5.07;;;6.40;99.90;;;;;;5085500;28;20564;-64
2023/03/27 10:25:40;;;;;;;8.23;4.87;;;6.20;99.90;;;;;;5097193;28;20162;-64
2023/03/27 10:28:33;;;;;;;5.57;5.07;;;6.00;99.90;;;;;;5095382;28;20203;-64
2023/03/27 10:31:03;;;;;;;8.57;5.10;;;5.80;99.90;;;;;;5096828;28;20585;-64
2023/03/27 10:33:35;;;;;;;7.77;5.30;;;5.70;99.90;;;;;;5096992;28;20181;-64
2023/03/27 10:36:02;;;;;;;6.03;5.33;;;5.70;99.90;;;;;;5097229;28;20162;-64
2023/03/27 10:38:30;;;;;;;7.10;5.13;;;5.90;99.90;;;;;;5095299;28;20235;-64
2023/03/27 10:40:56;;;;;;;6.90;5.40;;;6.10;99.90;;;;;;5096647;28;20205;-64
2023/03/27 10:43:41;;;;;;;8.20;5.27;;;6.10;99.90;;;;;;5096665;28;20168;-65
2023/03/27 10:46:16;;;;;;;6.67;6.00;;;6.10;99.90;;;;;;5096756;28;20218;-65
2023/03/27 10:49:03;;;;;;;5.70;4.77;;;6.00;99.90;;;;;;5096450;28;20192;-65
2023/03/27 10:52:03;;;;;;;7.23;5.37;;;5.90;99.90;;;;;;5096878;28;20175;-65
2023/03/27 10:54:45;;;;;;;6.93;5.00;;;5.90;99.90;;;;;;5084503;28;20197;-64
2023/03/27 10:57:29;;;;;;;4.93;4.63;;;5.90;99.90;;;;;;5096818;28;20168;-64
2023/03/27 11:00:12;;;;;;;5.40;4.90;;;6.10;99.90;;;;;;5096325;28;20311;-64
2023/03/27 11:03:25;;;;;;;5.80;4.67;;;6.40;99.90;;;;;;5096461;28;20296;-64
2023/03/27 11:05:53;;;;;;;6.43;5.13;;;6.80;99.90;;;;;;5073807;28;20186;-64
2023/03/27 11:08:31;;;;;;;6.10;4.63;;;7.10;99.90;;;;;;5090777;28;20665;-67
2023/03/27 11:11:20;;;;;;;9.80;5.00;;;7.20;99.90;;;;;;5096093;28;20187;-67
2023/03/27 11:13:47;;;;;;;5.00;4.60;;;7.50;99.90;;;;;;5094334;28;20192;-67
2023/03/27 11:16:17;;;;;;;5.00;4.60;;;7.60;99.90;;;;;;5094625;28;20177;-67
2023/03/27 11:18:50;;;;;;;6.70;4.83;;;7.40;99.90;;;;;;5096251;28;20204;-67
2023/03/27 11:21:51;;;;;;;4.63;4.33;;;7.40;99.90;;;;;;5095873;28;20216;-67
2023/03/27 11:24:47;;;;;;;7.60;4.77;;;7.60;99.90;;;;;;5095802;28;20669;-67
2023/03/27 11:27:19;;;;;;;8.13;4.50;;;7.40;99.90;;;;;;5094558;28;20173;-67
2023/03/27 11:30:03;;;;;;;9.83;4.47;;;7.30;99.90;;;;;;5095644;28;20189;-67
2023/03/27 11:32:39;;;;;;;5.00;4.50;;;7.00;99.90;;;;;;5095699;28;20230;-66
2023/03/27 11:35:12;;;;;;;5.33;4.17;;;7.10;99.90;;;;;;5094358;28;20176;-67
2023/03/27 11:38:01;;;;;;;7.10;4.33;;;7.50;99.90;;;;;;5094310;28;20219;-67
2023/03/27 11:40:43;;;;;;;4.53;4.13;;;7.80;99.90;;;;;;5096079;28;20157;-67
2023/03/27 11:43:11;;;;;;;4.80;4.07;;;7.50;99.90;;;;;;5095993;28;20164;-69
2023/03/27 11:45:57;;;;;;;6.57;4.90;;;7.40;99.90;;;;;;5094990;28;20181;-69
2023/03/27 11:48:40;;;;;;;10.70;6.20;;;7.20;99.90;;;;;;5095102;28;20193;-67
2023/03/27 11:51:18;;;;;;;6.30;5.30;;;7.10;99.90;;;;;;5096713;28;20173;-66
2023/03/27 11:54:13;;;;;;;5.00;4.50;;;7.00;99.90;;;;;;5094105;28;20188;-67
2023/03/27 11:56:54;;;;;;;7.20;4.50;;;6.60;99.90;;;;;;5093935;28;20214;-66
2023/03/27 11:59:27;;;;;;;5.33;4.20;;;6.50;99.90;;;;;;5095635;28;20265;-69
2023/03/27 12:02:17;;;;;;;8.50;4.60;;;6.50;99.90;;;;;;5095222;28;20232;-70
2023/03/27 12:04:55;;;;;;;5.13;4.60;;;6.60;99.90;;;;;;5095437;28;20161;-67
2023/03/27 12:07:27;;;;;;;5.43;4.90;;;6.40;99.90;;;;;;5095054;28;20157;-66
2023/03/27 12:10:15;;;;;;;8.40;5.20;;;6.30;99.90;;;;;;5094857;28;20607;-65
2023/03/27 12:12:44;;;;;;;5.47;4.93;;;6.00;99.90;;;;;;5094217;28;20574;-70
2023/03/27 12:15:45;;;;;;;6.83;5.00;;;5.70;99.90;;;;;;5093933;28;20227;-69
2023/03/27 12:18:29;;;;;;;6.90;4.80;;;5.40;99.90;;;;;;5093501;28;20249;-65
2023/03/27 12:21:01;;;;;;;5.80;5.37;;;5.20;99.90;;;;;;5094931;28;20189;-68
2023/03/27 12:23:52;;;;;;;5.23;4.57;;;5.40;99.90;;;;;;5093565;28;20177;-68
2023/03/27 12:26:51;;;;;;;6.17;5.10;;;5.80;99.90;;;;;;5093922;28;20569;-69
2023/03/27 12:29:26;;;;;;;6.87;5.57;;;6.10;99.90;;;;;;5094622;28;20216;-68
2023/03/27 12:32:12;;;;;;;7.80;4.87;;;6.60;99.90;;;;;;5093499;28;20176;-67
2023/03/27 12:34:59;;;;;;;4.77;4.40;;;6.80;99.90;;;;;;5093460;28;20169;-67
2023/03/27 12:37:41;;;;;;;5.17;4.73;;;7.10;99.90;;;;;;5094488;28;20157;-67
2023/03/27 12:40:40;;;;;;;4.60;4.30;;;7.20;99.90;;;;;;5095016;28;20196;-66
2023/03/27 12:43:21;;;;;;;9.60;5.93;;;7.00;99.90;;;;;;5082502;28;20211;-67
2023/03/27 12:46:06;;;;;;;4.40;4.17;;;7.10;99.90;;;;;;5094780;28;20195;-67
2023/03/27 12:48:33;;;;;;;4.60;4.30;;;7.30;99.90;;;;;;5095222;28;20527;-67
2023/03/27 12:50:59;;;;;;;8.40;4.43;;;7.60;99.90;;;;;;5093083;28;20780;-67
2023/03/27 12:53:28;;;;;;;12.10;4.20;;;7.80;99.90;;;;;;5094410;28;20173;-66
2023/03/27 12:56:11;;;;;;;4.67;4.27;;;8.10;99.90;;;;;;5094185;28;20191;-67
2023/03/27 12:58:37;;;;;;;5.27;3.80;;;8.10;99.90;;;;;;5093808;28;20579;-67
2023/03/27 13:01:08;;;;;;;4.70;4.27;;;8.10;99.90;;;;;;5094233;28;20205;-67
2023/03/27 13:03:56;;;;;;;4.30;3.90;;;8.10;99.90;;;;;;5092732;28;20260;-67
2023/03/27 13:06:47;;;;;;;6.60;3.90;;;8.40;99.90;;;;;;5082681;28;20227;-67
2023/03/27 13:09:33;;;;;;;5.37;3.90;;;8.80;99.90;;;;;;5093904;28;20254;-67
2023/03/27 13:12:22;;;;;;;4.53;3.80;;;8.10;99.90;;;;;;5092675;28;20176;-67
2023/03/27 13:15:19;;;;;;;5.23;4.20;;;7.60;99.90;;;;;;5092524;28;20649;-67
2023/03/27 13:18:12;;;;;;;6.13;4.17;;;7.20;99.90;;;;;;5093093;28;20188;-66
2023/03/27 13:20:50;;;;;;;5.47;4.60;;;6.40;99.90;;;;;;5094186;28;20171;-66